Time;durP1;ratioP1;P1;durP2;ratioP2;P2;SDS_P1;SDS_P2;PMS_P1;PMS_P2;Temp;Humidity;BMP_temperature;BMP_pressure;BME280_temperature;BME280_humidity;BME280_pressure;Samples;Min_cycle;Max_cycle;Signal;HPM_P1;HPM_P2
2022/12/02 00:02:30;;;;;;;14.52;9.38;;;6.70;99.90;;;;;;5028010;28;20291;-79
2022/12/02 00:05:14;;;;;;;15.65;10.23;;;6.70;99.90;;;;;;5059057;28;20063;-78
2022/12/02 00:07:44;;;;;;;;;;;6.70;99.90;;;;;;5060779;28;20048;-79
2022/12/02 00:10:27;;;;;;;12.45;8.60;;;6.70;99.90;;;;;;5044399;28;20015;-79
2022/12/02 00:12:54;;;;;;;;;;;6.70;99.90;;;;;;5027081;28;20052;-79
2022/12/02 00:15:33;;;;;;;13.30;8.10;;;6.70;99.90;;;;;;5044363;28;20011;-78
2022/12/02 00:18:00;;;;;;;13.23;8.02;;;6.70;99.90;;;;;;5057239;28;20041;-78
2022/12/02 00:20:26;;;;;;;13.80;9.63;;;6.60;99.90;;;;;;5026708;28;20807;-79
2022/12/02 00:22:53;;;;;;;12.48;8.57;;;6.60;99.90;;;;;;5043565;28;20363;-78
2022/12/02 00:25:20;;;;;;;10.63;7.32;;;6.70;99.90;;;;;;5044103;28;20705;-78
2022/12/02 00:27:47;;;;;;;14.10;9.38;;;6.60;99.90;;;;;;5026707;28;20337;-78
2022/12/02 00:30:15;;;;;;;14.45;10.05;;;6.60;99.90;;;;;;5044261;28;20131;-79
2022/12/02 00:32:41;;;;;;;13.70;8.82;;;6.50;99.90;;;;;;5059042;28;20392;-79
2022/12/02 00:35:08;;;;;;;9.85;7.32;;;6.50;99.90;;;;;;5042977;28;20048;-79
2022/12/02 00:37:35;;;;;;;10.00;6.55;;;6.50;99.90;;;;;;5043411;28;20083;-79
2022/12/02 00:40:02;;;;;;;9.48;6.22;;;6.50;99.90;;;;;;5040801;28;20238;-79
2022/12/02 00:42:29;;;;;;;7.88;5.30;;;6.60;99.90;;;;;;5044665;28;20453;-78
2022/12/02 00:47:40;;;;;;;8.63;5.22;;;6.70;99.90;;;;;;5045908;28;20051;-79
2022/12/02 00:50:08;;;;;;;8.45;5.88;;;6.70;99.90;;;;;;5027042;28;20057;-79
2022/12/02 00:52:35;;;;;;;7.47;5.18;;;6.70;99.90;;;;;;5042908;28;20116;-79
2022/12/02 00:55:02;;;;;;;6.50;4.78;;;6.70;99.90;;;;;;5043109;28;20677;-79
2022/12/02 00:57:29;;;;;;;8.20;5.15;;;6.70;99.90;;;;;;5025415;28;20044;-78
2022/12/02 00:59:56;;;;;;;8.30;4.93;;;6.70;99.90;;;;;;5026562;28;20135;-79
2022/12/02 01:02:22;;;;;;;7.90;4.78;;;6.70;99.90;;;;;;5042311;28;20086;-79
2022/12/02 01:04:49;;;;;;;11.50;7.53;;;6.80;99.90;;;;;;5042179;28;20589;-79
2022/12/02 01:07:16;;;;;;;10.45;6.80;;;6.70;99.90;;;;;;5042121;28;20098;-79
2022/12/02 01:09:43;;;;;;;13.63;8.70;;;6.60;99.90;;;;;;5042722;28;20057;-79
2022/12/02 01:12:10;;;;;;;13.25;7.90;;;6.50;99.90;;;;;;5058489;28;20945;-79
2022/12/02 01:14:37;;;;;;;9.20;6.93;;;6.50;99.90;;;;;;5056480;28;20048;-79
2022/12/02 01:17:04;;;;;;;10.88;7.20;;;6.50;99.90;;;;;;5058535;28;20943;-79
2022/12/02 01:19:31;;;;;;;11.63;7.97;;;6.50;99.90;;;;;;5042062;28;20114;-78
2022/12/02 01:21:58;;;;;;;12.88;7.72;;;6.50;99.90;;;;;;5042180;28;20519;-79
2022/12/02 01:24:24;;;;;;;10.30;6.65;;;6.40;99.90;;;;;;5058687;28;20052;-79
2022/12/02 01:26:51;;;;;;;13.38;8.32;;;6.40;99.90;;;;;;5058954;28;20059;-79
2022/12/02 01:29:18;;;;;;;11.52;8.13;;;6.40;99.90;;;;;;5058798;28;20056;-79
2022/12/02 01:31:45;;;;;;;11.30;7.20;;;6.30;99.90;;;;;;5060314;28;20192;-79
2022/12/02 01:34:11;;;;;;;12.93;7.45;;;6.30;99.90;;;;;;5041421;28;20053;-79
2022/12/02 01:36:38;;;;;;;12.90;8.82;;;6.30;99.90;;;;;;5042598;28;20390;-79
2022/12/02 01:39:05;;;;;;;13.98;9.05;;;6.30;99.90;;;;;;5058612;28;20056;-79
2022/12/02 01:41:32;;;;;;;13.95;8.65;;;6.20;99.90;;;;;;5059448;28;20055;-79
2022/12/02 01:43:58;;;;;;;15.02;9.48;;;6.20;99.90;;;;;;5057581;28;20079;-78
2022/12/02 01:46:25;;;;;;;11.80;8.43;;;6.20;99.90;;;;;;5041839;28;20072;-79
2022/12/02 01:48:52;;;;;;;12.95;8.65;;;6.10;99.90;;;;;;5058342;28;20106;-79
2022/12/02 01:51:19;;;;;;;11.65;7.95;;;6.10;99.90;;;;;;5042337;28;20061;-79
2022/12/02 01:53:46;;;;;;;9.73;7.03;;;6.10;99.90;;;;;;5042122;28;20135;-79
2022/12/02 01:56:12;;;;;;;10.90;7.13;;;6.10;99.90;;;;;;5042215;28;20076;-79
2022/12/02 01:58:39;;;;;;;11.65;7.60;;;6.10;99.90;;;;;;5058366;28;20719;-79
2022/12/02 02:01:42;;;;;;;11.68;7.53;;;6.10;99.90;;;;;;5042862;28;20044;-79
2022/12/02 02:04:09;;;;;;;10.65;7.00;;;6.00;99.90;;;;;;5019174;28;20059;-78
2022/12/02 02:06:38;;;;;;;10.52;6.00;;;6.00;99.90;;;;;;5023454;28;20067;-79
2022/12/02 02:09:06;;;;;;;11.60;6.63;;;6.00;99.90;;;;;;5055905;28;20049;-78
2022/12/02 02:11:34;;;;;;;9.32;6.22;;;6.00;99.90;;;;;;5058704;28;20499;-79
2022/12/02 02:14:03;;;;;;;9.13;5.68;;;6.00;99.90;;;;;;5060073;28;20119;-79
2022/12/02 02:16:30;;;;;;;7.88;5.00;;;6.00;99.90;;;;;;5030415;28;20395;-79
2022/12/02 02:18:57;;;;;;;7.25;4.35;;;6.10;99.90;;;;;;5029166;28;20055;-79
2022/12/02 02:21:27;;;;;;;5.50;3.83;;;6.10;99.90;;;;;;5062448;28;20148;-79
2022/12/02 02:23:55;;;;;;;6.70;4.30;;;6.20;99.90;;;;;;5062259;28;20059;-79
2022/12/02 02:26:21;;;;;;;7.63;4.35;;;6.20;99.90;;;;;;5029214;28;20141;-79
2022/12/02 02:28:48;;;;;;;7.30;4.82;;;6.30;99.90;;;;;;5045739;28;20411;-79
2022/12/02 02:31:15;;;;;;;7.72;5.13;;;6.30;99.90;;;;;;5037610;28;20057;-78
2022/12/02 02:33:42;;;;;;;7.20;4.50;;;6.20;99.90;;;;;;5036927;28;20110;-79
2022/12/02 02:36:10;;;;;;;7.03;4.78;;;6.30;99.90;;;;;;5044310;28;20240;-78
2022/12/02 02:38:37;;;;;;;7.03;4.82;;;6.30;99.90;;;;;;5045785;28;20059;-79
2022/12/02 02:41:04;;;;;;;8.38;5.32;;;6.30;99.90;;;;;;5044024;28;20127;-79
2022/12/02 02:43:31;;;;;;;8.32;4.88;;;6.30;99.90;;;;;;5072280;28;20478;-79
2022/12/02 02:45:58;;;;;;;8.00;4.60;;;6.20;99.90;;;;;;5064152;28;20056;-79
2022/12/02 02:48:25;;;;;;;7.40;4.35;;;6.20;99.90;;;;;;5063301;28;20051;-78
2022/12/02 02:50:53;;;;;;;9.38;6.25;;;6.30;99.90;;;;;;5047640;28;20053;-79
2022/12/02 02:53:22;;;;;;;9.20;5.78;;;6.20;99.90;;;;;;5043963;28;20060;-79
2022/12/02 02:55:48;;;;;;;10.80;6.80;;;6.20;99.90;;;;;;5044386;28;20056;-79
2022/12/02 02:58:19;;;;;;;12.32;7.75;;;6.10;99.90;;;;;;5026893;28;20052;-79
2022/12/02 03:00:52;;;;;;;11.60;7.32;;;6.10;99.90;;;;;;5045710;28;20510;-79
2022/12/02 03:03:20;;;;;;;13.40;7.88;;;6.00;99.90;;;;;;5047094;28;20059;-78
2022/12/02 03:05:47;;;;;;;10.75;7.22;;;6.00;99.90;;;;;;5063804;28;20052;-78
2022/12/02 03:08:15;;;;;;;10.75;7.00;;;5.90;99.90;;;;;;5047278;28;20049;-79
2022/12/02 03:10:41;;;;;;;12.57;7.55;;;6.00;99.90;;;;;;5065401;28;20052;-78
2022/12/02 03:13:08;;;;;;;8.93;5.95;;;5.90;99.90;;;;;;5062378;28;20350;-78
2022/12/02 03:15:35;;;;;;;10.32;6.47;;;6.00;99.90;;;;;;5030513;28;20155;-79
2022/12/02 03:18:02;;;;;;;12.25;6.03;;;6.00;99.90;;;;;;5046627;28;20190;-79
2022/12/02 03:20:29;;;;;;;8.82;5.47;;;6.10;99.90;;;;;;5031453;28;20553;-79
2022/12/02 03:22:56;;;;;;;7.40;4.75;;;6.00;99.90;;;;;;5029522;28;20128;-79
2022/12/02 03:25:23;;;;;;;6.93;4.75;;;6.10;99.90;;;;;;5046024;28;20055;-79
2022/12/02 03:27:50;;;;;;;8.07;5.07;;;6.10;99.90;;;;;;5045413;28;20054;-79
2022/12/02 03:30:17;;;;;;;7.07;4.05;;;6.10;99.90;;;;;;5030614;28;20052;-79
2022/12/02 03:32:44;;;;;;;6.20;4.65;;;6.10;99.90;;;;;;5029698;28;20412;-78
2022/12/02 03:35:11;;;;;;;7.65;4.57;;;6.10;99.90;;;;;;5037688;28;20049;-79
2022/12/02 03:37:38;;;;;;;7.50;5.97;;;6.10;99.90;;;;;;5026579;28;20057;-78
2022/12/02 03:40:06;;;;;;;7.57;4.70;;;6.00;99.90;;;;;;5026981;28;20420;-78
2022/12/02 03:42:33;;;;;;;7.35;4.47;;;6.00;99.90;;;;;;5045028;28;20048;-79
2022/12/02 03:45:00;;;;;;;8.32;4.65;;;6.00;99.90;;;;;;5046419;28;20045;-79
2022/12/02 03:47:27;;;;;;;6.20;4.13;;;6.00;99.90;;;;;;5029652;28;20195;-78
2022/12/02 03:49:55;;;;;;;8.60;4.72;;;6.10;99.90;;;;;;5029148;28;20063;-79
2022/12/02 03:52:22;;;;;;;7.65;4.90;;;6.10;99.90;;;;;;5046168;28;20071;-79
2022/12/02 03:54:49;;;;;;;7.90;4.97;;;6.00;99.90;;;;;;5062070;28;20123;-78
2022/12/02 03:57:21;;;;;;;8.32;5.43;;;6.00;99.90;;;;;;5031472;28;20419;-78
2022/12/02 03:59:47;;;;;;;8.07;4.57;;;6.00;99.90;;;;;;5025916;28;20059;-79
2022/12/02 04:02:14;;;;;;;8.50;5.15;;;5.90;99.90;;;;;;5060084;28;20057;-79
2022/12/02 04:04:41;;;;;;;9.30;5.32;;;5.90;99.90;;;;;;5044903;28;20048;-79
2022/12/02 04:07:08;;;;;;;7.40;4.57;;;5.90;99.90;;;;;;5045955;28;20059;-78
2022/12/02 04:09:35;;;;;;;6.85;4.45;;;5.90;99.90;;;;;;5045676;28;20059;-79
2022/12/02 04:12:02;;;;;;;9.13;4.95;;;5.90;99.90;;;;;;5062204;28;20052;-79
2022/12/02 04:14:29;;;;;;;9.00;5.75;;;5.90;99.90;;;;;;5040913;28;20049;-77
2022/12/02 04:16:56;;;;;;;10.80;6.25;;;5.90;99.90;;;;;;5043423;28;20045;-79
2022/12/02 04:19:23;;;;;;;10.82;6.30;;;5.90;99.90;;;;;;5041868;28;20138;-79
2022/12/02 04:21:50;;;;;;;7.78;5.05;;;5.90;99.90;;;;;;5026038;28;20060;-79
2022/12/02 04:24:17;;;;;;;10.93;6.13;;;5.80;99.90;;;;;;5059110;28;20041;-79
2022/12/02 04:26:44;;;;;;;11.52;7.18;;;5.80;99.90;;;;;;5045215;28;20502;-79
2022/12/02 04:29:14;;;;;;;10.02;6.68;;;5.80;99.90;;;;;;5045382;28;20055;-79
2022/12/02 04:31:41;;;;;;;12.02;7.25;;;5.80;99.90;;;;;;5045482;28;20135;-78
2022/12/02 04:34:07;;;;;;;9.57;5.90;;;5.80;99.90;;;;;;5061091;28;20071;-79
2022/12/02 04:36:34;;;;;;;10.23;6.20;;;5.80;99.90;;;;;;5021536;28;20055;-79
2022/12/02 04:39:01;;;;;;;8.18;5.05;;;5.80;99.90;;;;;;5041788;28;20049;-79
2022/12/02 04:41:28;;;;;;;7.50;5.00;;;5.80;99.90;;;;;;5025472;28;20053;-79
2022/12/02 04:43:54;;;;;;;8.15;5.28;;;5.90;99.90;;;;;;5038697;28;20045;-78
2022/12/02 04:46:21;;;;;;;9.38;5.78;;;5.90;99.90;;;;;;5045512;28;20048;-79
2022/12/02 04:48:48;;;;;;;12.07;6.15;;;5.80;99.90;;;;;;5044618;28;20052;-79
2022/12/02 04:51:15;;;;;;;9.30;5.95;;;5.80;99.90;;;;;;5028945;28;20091;-79
2022/12/02 04:53:41;;;;;;;9.20;6.13;;;5.70;99.90;;;;;;5061426;28;20436;-78
2022/12/02 04:56:08;;;;;;;9.05;6.18;;;5.80;99.90;;;;;;5045110;28;20068;-79
2022/12/02 04:58:35;;;;;;;9.48;5.85;;;5.80;99.90;;;;;;5061191;28;20056;-78
2022/12/02 05:01:02;;;;;;;8.52;5.50;;;5.70;99.90;;;;;;5025570;28;20080;-79
2022/12/02 05:03:29;;;;;;;7.28;4.95;;;5.70;99.90;;;;;;5034078;28;20059;-79
2022/12/02 05:05:56;;;;;;;7.30;4.82;;;5.80;99.90;;;;;;5060960;28;20150;-78
2022/12/02 05:08:22;;;;;;;8.82;5.18;;;5.80;99.90;;;;;;5034282;28;20049;-79
2022/12/02 05:10:50;;;;;;;6.78;4.65;;;5.90;99.90;;;;;;5042198;28;20056;-79
2022/12/02 05:13:16;;;;;;;8.25;5.75;;;5.80;99.90;;;;;;5048336;28;20092;-79
2022/12/02 05:15:43;;;;;;;13.77;8.82;;;5.80;99.90;;;;;;5061993;28;20146;-79
2022/12/02 05:18:10;;;;;;;11.00;7.82;;;5.70;99.90;;;;;;5060181;28;20060;-78
2022/12/02 05:20:36;;;;;;;10.70;6.38;;;5.70;99.90;;;;;;5028733;28;20082;-78
2022/12/02 05:23:03;;;;;;;12.13;7.45;;;5.70;99.90;;;;;;5044149;28;20059;-78
2022/12/02 05:25:30;;;;;;;9.60;6.70;;;5.70;99.90;;;;;;5045371;28;20060;-78
2022/12/02 05:27:57;;;;;;;10.05;6.45;;;5.70;99.90;;;;;;5043513;28;20052;-77
2022/12/02 05:30:24;;;;;;;9.57;6.25;;;5.70;99.90;;;;;;5028907;28;20048;-78
2022/12/02 05:32:51;;;;;;;10.52;6.63;;;5.70;99.90;;;;;;5027512;28;20048;-78
2022/12/02 05:35:18;;;;;;;8.05;5.35;;;5.70;99.90;;;;;;5061413;28;20122;-77
2022/12/02 05:37:44;;;;;;;7.97;5.72;;;5.70;99.90;;;;;;5040895;28;20053;-79
2022/12/02 05:40:11;;;;;;;8.80;5.53;;;5.70;99.90;;;;;;5042165;28;20929;-79
2022/12/02 05:42:39;;;;;;;6.72;4.82;;;5.70;99.90;;;;;;5042842;28;20060;-78
2022/12/02 05:45:13;;;;;;;7.22;5.35;;;5.80;99.90;;;;;;5044998;28;20048;-78
2022/12/02 05:47:40;;;;;;;7.35;5.10;;;5.70;99.90;;;;;;5029164;28;20076;-78
2022/12/02 05:50:10;;;;;;;7.00;4.75;;;5.80;99.90;;;;;;5031850;28;20056;-79
2022/12/02 05:52:37;;;;;;;6.03;3.90;;;5.90;99.90;;;;;;5048716;28;20053;-78
2022/12/02 05:55:20;;;;;;;6.00;4.18;;;5.90;99.90;;;;;;5032250;28;20075;-78
2022/12/02 05:57:46;;;;;;;5.68;4.00;;;5.90;99.90;;;;;;5049436;28;20071;-77
2022/12/02 06:00:20;;;;;;;6.97;4.53;;;5.90;99.90;;;;;;5032409;28;20147;-77
2022/12/02 06:02:49;;;;;;;5.20;3.83;;;5.90;99.90;;;;;;5062940;28;20081;-77
2022/12/02 06:05:19;;;;;;;7.20;4.72;;;5.90;99.90;;;;;;5030306;28;20048;-77
2022/12/02 06:07:46;;;;;;;5.97;4.45;;;5.90;99.90;;;;;;5046204;28;20044;-78
2022/12/02 06:10:29;;;;;;;5.72;4.13;;;5.90;99.90;;;;;;5062649;28;20059;-78
2022/12/02 06:13:01;;;;;;;7.38;4.40;;;5.90;99.90;;;;;;5038467;28;20056;-77
2022/12/02 06:15:33;;;;;;;6.85;4.25;;;5.90;99.90;;;;;;5045998;28;20135;-77
2022/12/02 06:17:59;;;;;;;6.18;4.40;;;5.90;99.90;;;;;;5050691;28;20045;-77
2022/12/02 06:20:29;;;;;;;7.25;5.18;;;5.90;99.90;;;;;;5061940;28;20070;-77
2022/12/02 06:22:57;;;;;;;7.10;5.80;;;5.90;99.90;;;;;;5058746;28;20051;-78
2022/12/02 06:25:28;;;;;;;7.82;5.20;;;5.80;99.90;;;;;;5063169;28;20118;-79
2022/12/02 06:27:59;;;;;;;8.73;5.95;;;5.80;99.90;;;;;;5042241;28;20124;-78
2022/12/02 06:30:26;;;;;;;7.60;5.25;;;5.80;99.90;;;;;;5043731;28;20145;-79
2022/12/02 06:32:55;;;;;;;8.13;5.05;;;5.80;99.90;;;;;;5042323;28;20060;-77
2022/12/02 06:35:23;;;;;;;6.25;4.60;;;5.80;99.90;;;;;;5059884;28;20053;-78
2022/12/02 06:37:53;;;;;;;6.90;4.72;;;5.80;99.90;;;;;;5043124;28;20291;-80
2022/12/02 06:40:28;;;;;;;7.40;4.78;;;5.80;99.90;;;;;;5027492;28;20044;-77
2022/12/02 06:42:59;;;;;;;7.32;5.32;;;5.90;99.90;;;;;;5057367;28;20089;-78
2022/12/02 06:45:33;;;;;;;6.22;4.80;;;5.80;99.90;;;;;;5042943;28;20206;-78
2022/12/02 06:48:16;;;;;;;5.93;4.53;;;5.80;99.90;;;;;;5025672;28;20129;-78
2022/12/02 06:50:45;;;;;;;5.47;4.15;;;5.80;99.90;;;;;;5045260;28;20060;-78
2022/12/02 06:53:27;;;;;;;7.13;4.88;;;5.80;99.90;;;;;;5026407;28;20819;-78
2022/12/02 06:56:03;;;;;;;5.82;4.18;;;5.80;99.90;;;;;;5029506;28;20047;-81
2022/12/02 06:58:46;;;;;;;7.55;5.47;;;5.70;99.90;;;;;;5050996;28;20215;-79
2022/12/02 07:01:37;;;;;;;5.70;4.15;;;5.70;99.90;;;;;;5035670;28;20435;-80
2022/12/02 07:04:07;;;;;;;6.40;4.95;;;5.70;99.90;;;;;;5033577;28;20621;-80
2022/12/02 07:06:42;;;;;;;10.07;7.22;;;5.70;99.90;;;;;;5054523;28;20079;-80
2022/12/02 07:09:38;;;;;;;7.72;5.68;;;5.60;99.90;;;;;;5042136;28;20501;-80
2022/12/02 07:12:30;;;;;;;5.97;4.72;;;5.60;99.90;;;;;;5035221;28;20506;-80
2022/12/02 07:15:09;;;;;;;6.95;4.40;;;5.60;99.90;;;;;;5044038;28;20051;-80
2022/12/02 07:17:39;;;;;;;7.22;5.40;;;5.60;99.90;;;;;;5059536;28;20072;-80
2022/12/02 07:20:07;;;;;;;6.50;5.20;;;5.60;99.90;;;;;;5041599;28;20058;-80
2022/12/02 07:22:48;;;;;;;7.93;5.25;;;5.60;99.90;;;;;;5053716;28;20131;-80
2022/12/02 07:25:14;;;;;;;5.55;4.60;;;5.70;99.90;;;;;;5036438;28;20057;-79
2022/12/02 07:27:48;;;;;;;5.93;4.13;;;5.70;99.90;;;;;;5051871;28;20515;-79
2022/12/02 07:30:35;;;;;;;6.20;4.30;;;5.70;99.90;;;;;;5057183;28;20083;-80
2022/12/02 07:33:02;;;;;;;6.00;4.32;;;5.70;99.90;;;;;;5029334;28;20143;-80
2022/12/02 07:35:29;;;;;;;5.63;4.30;;;5.80;99.90;;;;;;5022452;28;20244;-80
2022/12/02 07:37:57;;;;;;;5.60;3.90;;;5.70;99.90;;;;;;5049984;28;20040;-80
2022/12/02 07:40:23;;;;;;;5.72;4.35;;;5.70;99.90;;;;;;5038738;28;20553;-80
2022/12/02 07:42:50;;;;;;;6.63;4.90;;;5.70;99.90;;;;;;5022317;28;20044;-80
2022/12/02 07:45:18;;;;;;;6.70;3.75;;;5.80;99.90;;;;;;5057883;28;20143;-80
2022/12/02 07:47:44;;;;;;;5.13;3.83;;;5.80;99.90;;;;;;5024949;28;20063;-78
2022/12/02 07:50:13;;;;;;;5.00;3.67;;;5.80;99.90;;;;;;5044244;28;20048;-79
2022/12/02 07:52:40;;;;;;;4.40;3.38;;;5.90;99.90;;;;;;5048516;28;20504;-79
2022/12/02 07:55:07;;;;;;;6.03;3.63;;;5.90;99.90;;;;;;5037428;28;20060;-79
2022/12/02 07:57:38;;;;;;;6.45;3.95;;;5.90;99.90;;;;;;5035384;28;20110;-79
2022/12/02 08:00:06;;;;;;;6.15;3.88;;;5.90;99.90;;;;;;5053485;28;20056;-79
2022/12/02 08:02:33;;;;;;;6.80;4.10;;;5.90;99.90;;;;;;5050462;28;20090;-80
2022/12/02 08:05:00;;;;;;;5.72;3.42;;;6.00;99.90;;;;;;5018568;28;20049;-80
2022/12/02 08:07:27;;;;;;;4.05;2.90;;;6.00;99.90;;;;;;5036629;28;20076;-79
2022/12/02 08:09:54;;;;;;;3.75;2.80;;;6.00;99.90;;;;;;5027130;28;20406;-80
2022/12/02 08:12:21;;;;;;;4.57;3.17;;;6.10;99.90;;;;;;5053364;28;20045;-80
2022/12/02 08:14:47;;;;;;;5.65;3.72;;;6.10;99.90;;;;;;5035424;28;20547;-80
2022/12/02 08:17:15;;;;;;;6.40;4.45;;;6.10;99.90;;;;;;5036473;28;21833;-79
2022/12/02 08:19:41;;;;;;;5.30;3.80;;;6.10;99.90;;;;;;5050908;28;20147;-80
2022/12/02 08:22:08;;;;;;;6.68;4.28;;;6.10;99.90;;;;;;5035618;28;20377;-81
2022/12/02 08:24:35;;;;;;;5.88;4.13;;;6.10;99.90;;;;;;5038314;28;20504;-80
2022/12/02 08:27:02;;;;;;;7.25;4.32;;;6.20;99.90;;;;;;5054528;28;20044;-80
2022/12/02 08:29:29;;;;;;;7.97;4.45;;;6.20;99.90;;;;;;5053065;28;20131;-81
2022/12/02 08:31:56;;;;;;;5.82;3.83;;;6.20;99.90;;;;;;5037974;28;20052;-80
2022/12/02 08:34:23;;;;;;;4.03;3.53;;;6.20;99.90;;;;;;5062602;28;20052;-81
2022/12/02 08:36:50;;;;;;;5.40;3.80;;;6.30;99.90;;;;;;5046170;28;20124;-81
2022/12/02 08:39:17;;;;;;;4.38;3.00;;;6.30;99.90;;;;;;5069966;28;20421;-81
2022/12/02 08:41:45;;;;;;;4.75;3.65;;;6.30;99.90;;;;;;5074241;28;20044;-81
2022/12/02 08:44:11;;;;;;;6.45;4.18;;;6.40;99.90;;;;;;5040799;28;20120;-80
2022/12/02 08:46:38;;;;;;;6.78;4.05;;;6.30;99.90;;;;;;5033749;28;20054;-82
2022/12/02 08:49:05;;;;;;;7.28;5.13;;;6.30;99.90;;;;;;5036575;28;20445;-81
2022/12/02 08:51:32;;;;;;;5.55;3.75;;;6.30;99.90;;;;;;5057712;28;20067;-81
2022/12/02 08:53:59;;;;;;;5.78;3.90;;;6.40;99.90;;;;;;5036935;28;20055;-81
2022/12/02 08:56:26;;;;;;;5.68;3.63;;;6.40;99.90;;;;;;5023264;28;20090;-81
2022/12/02 08:58:53;;;;;;;7.78;5.25;;;6.50;99.90;;;;;;5039717;28;20067;-82
2022/12/02 09:01:20;;;;;;;7.28;4.65;;;6.50;99.90;;;;;;5055061;28;20044;-81
2022/12/02 09:03:47;;;;;;;6.57;4.80;;;6.40;99.90;;;;;;5054163;28;20048;-81
2022/12/02 09:06:14;;;;;;;6.40;4.47;;;6.50;99.90;;;;;;5040248;28;20300;-81
2022/12/02 09:08:40;;;;;;;5.80;3.67;;;6.50;99.90;;;;;;5058062;28;20043;-81
2022/12/02 09:11:08;;;;;;;6.57;4.20;;;6.60;99.90;;;;;;5057195;28;20270;-82
2022/12/02 09:13:35;;;;;;;5.00;3.70;;;6.60;99.90;;;;;;5034628;28;20399;-81
2022/12/02 09:16:01;;;;;;;4.97;3.65;;;6.60;99.90;;;;;;5028688;28;20075;-81
2022/12/02 09:18:28;;;;;;;5.35;3.22;;;6.70;99.90;;;;;;5060260;28;20067;-81
2022/12/02 09:20:55;;;;;;;6.35;4.35;;;6.70;99.90;;;;;;5056857;28;20592;-80
2022/12/02 09:23:22;;;;;;;6.10;4.13;;;6.60;99.90;;;;;;5064413;28;20289;-82
2022/12/02 09:25:49;;;;;;;5.35;4.03;;;6.70;99.90;;;;;;5034988;28;20052;-81
2022/12/02 09:28:15;;;;;;;7.35;4.70;;;6.80;99.90;;;;;;5058394;28;20062;-81
2022/12/02 09:30:42;;;;;;;5.47;3.50;;;6.80;99.90;;;;;;5060452;28;20048;-81
2022/12/02 09:33:09;;;;;;;5.47;3.90;;;6.90;99.90;;;;;;5039067;28;20559;-81
2022/12/02 09:35:36;;;;;;;6.75;4.50;;;6.90;99.90;;;;;;5039147;28;20116;-81
2022/12/02 09:38:03;;;;;;;6.75;4.40;;;6.90;99.90;;;;;;5042781;28;20629;-81
2022/12/02 09:40:34;;;;;;;6.60;4.97;;;6.90;99.90;;;;;;5037337;28;20249;-80
2022/12/02 09:43:02;;;;;;;6.90;5.25;;;6.90;99.90;;;;;;5052037;28;20479;-79
2022/12/02 09:45:29;;;;;;;6.65;4.88;;;6.90;99.90;;;;;;5039157;28;20040;-80
2022/12/02 09:47:56;;;;;;;5.70;4.25;;;6.90;99.90;;;;;;5046297;28;20088;-79
2022/12/02 09:50:24;;;;;;;5.57;3.92;;;7.00;99.90;;;;;;5057877;28;20143;-79
2022/12/02 09:52:51;;;;;;;5.63;3.58;;;7.10;99.90;;;;;;5044143;28;20052;-80
2022/12/02 09:55:19;;;;;;;5.30;3.63;;;7.20;99.90;;;;;;5045275;28;20135;-80
2022/12/02 09:57:46;;;;;;;6.53;4.00;;;7.30;99.90;;;;;;5036770;28;20518;-79
2022/12/02 10:00:17;;;;;;;5.80;4.30;;;7.30;99.90;;;;;;5040708;28;20139;-80
2022/12/02 10:02:51;;;;;;;6.55;4.45;;;7.30;99.90;;;;;;5041060;28;20063;-79
2022/12/02 10:05:24;;;;;;;6.97;4.78;;;7.30;99.90;;;;;;5042341;28;20061;-80
2022/12/02 10:07:53;;;;;;;5.20;3.75;;;7.30;99.90;;;;;;5049492;28;20420;-80
2022/12/02 10:10:25;;;;;;;6.30;4.32;;;7.30;99.90;;;;;;5056781;28;20048;-80
2022/12/02 10:12:53;;;;;;;6.90;4.78;;;7.40;99.90;;;;;;5037074;28;20052;-80
2022/12/02 10:15:23;;;;;;;9.52;6.53;;;7.30;99.90;;;;;;5027852;28;20059;-80
2022/12/02 10:17:50;;;;;;;8.27;5.68;;;7.30;99.90;;;;;;5052917;28;20135;-81
2022/12/02 10:20:22;;;;;;;8.80;5.80;;;7.30;99.90;;;;;;5059839;28;20067;-80
2022/12/02 10:23:13;;;;;;;9.68;6.95;;;7.30;99.90;;;;;;5053390;28;20482;-80
2022/12/02 10:25:45;;;;;;;9.50;6.40;;;7.20;99.90;;;;;;5040587;28;20044;-84
2022/12/02 10:28:29;;;;;;;8.07;6.05;;;7.20;99.90;;;;;;5045224;28;20507;-84
2022/12/02 10:31:03;;;;;;;8.85;6.22;;;7.20;99.90;;;;;;5073685;28;20490;-83
2022/12/02 10:33:33;;;;;;;12.45;8.93;;;7.20;99.90;;;;;;5040776;28;20071;-84
2022/12/02 10:36:00;;;;;;;11.32;8.45;;;7.20;99.90;;;;;;5053345;28;20122;-84
2022/12/02 10:38:40;;;;;;;12.98;7.57;;;7.10;99.90;;;;;;5039155;28;20132;-84
2022/12/02 10:41:15;;;;;;;10.02;7.00;;;7.10;99.90;;;;;;5066735;28;20118;-84
2022/12/02 10:43:42;;;;;;;9.68;6.95;;;7.20;99.90;;;;;;5059770;28;20079;-84
2022/12/02 10:46:15;;;;;;;8.82;6.75;;;7.20;99.90;;;;;;5043465;28;20047;-84
2022/12/02 10:48:42;;;;;;;11.85;7.75;;;7.30;99.90;;;;;;5058460;28;20389;-85
2022/12/02 10:51:14;;;;;;;10.52;7.47;;;7.30;99.90;;;;;;5049030;28;20089;-84
2022/12/02 10:53:42;;;;;;;11.57;8.13;;;7.50;99.90;;;;;;5075153;28;20396;-83
2022/12/02 10:56:18;;;;;;;10.13;6.88;;;7.60;99.90;;;;;;5058051;28;20094;-85
2022/12/02 10:58:49;;;;;;;11.65;8.43;;;7.70;99.90;;;;;;5055099;28;20052;-84
2022/12/02 11:01:18;;;;;;;13.43;9.25;;;7.70;99.90;;;;;;5059874;28;20048;-84
2022/12/02 11:03:45;;;;;;;13.93;9.60;;;7.60;99.90;;;;;;5043203;28;20381;-84
2022/12/02 11:06:18;;;;;;;13.18;9.23;;;7.70;99.90;;;;;;5039139;28;20056;-84
2022/12/02 11:08:46;;;;;;;12.50;9.07;;;7.70;99.90;;;;;;5059869;28;20053;-84
2022/12/02 11:11:23;;;;;;;10.82;7.88;;;7.70;99.90;;;;;;5059515;28;20509;-83
2022/12/02 11:13:53;;;;;;;9.63;7.13;;;7.80;99.90;;;;;;5058984;28;20063;-84
2022/12/02 11:16:26;;;;;;;9.10;7.18;;;7.90;99.90;;;;;;5059973;28;20060;-83
2022/12/02 11:19:02;;;;;;;7.65;5.75;;;8.00;99.90;;;;;;5061928;28;20053;-83
2022/12/02 11:21:29;;;;;;;8.13;5.85;;;8.00;99.90;;;;;;5046864;28;20078;-83
2022/12/02 11:24:26;;;;;;;7.50;5.20;;;8.10;99.90;;;;;;5063616;28;20170;-83
2022/12/02 11:27:02;;;;;;;8.82;6.72;;;8.10;99.90;;;;;;5064277;28;20059;-83
2022/12/02 11:29:42;;;;;;;8.48;6.10;;;8.10;99.90;;;;;;5061881;28;20165;-84
2022/12/02 11:32:24;;;;;;;6.57;5.00;;;8.10;99.90;;;;;;5056545;28;20070;-84
2022/12/02 11:34:53;;;;;;;5.75;4.25;;;8.20;99.90;;;;;;5067837;28;20060;-84
2022/12/02 11:37:44;;;;;;;7.55;5.70;;;8.30;99.90;;;;;;5043133;28;20060;-84
2022/12/02 11:40:12;;;;;;;9.20;6.80;;;8.40;99.90;;;;;;5042085;28;20204;-81
2022/12/02 11:42:39;;;;;;;8.60;5.78;;;8.40;99.90;;;;;;5055312;28;20289;-82
2022/12/02 11:45:15;;;;;;;7.43;5.82;;;8.60;99.90;;;;;;5044882;28;20464;-76
2022/12/02 11:47:43;;;;;;;9.07;6.45;;;8.70;99.90;;;;;;5043545;28;20036;-76
2022/12/02 11:50:16;;;;;;;8.73;6.35;;;8.80;99.90;;;;;;5061117;28;20066;-76
2022/12/02 11:53:13;;;;;;;8.90;6.43;;;8.80;99.90;;;;;;5060231;28;20044;-76
2022/12/02 11:55:45;;;;;;;8.93;7.47;;;8.80;99.90;;;;;;5056044;28;20399;-76
2022/12/02 11:58:26;;;;;;;10.98;8.48;;;8.80;99.90;;;;;;5037407;28;20048;-75
2022/12/02 12:01:12;;;;;;;11.27;7.97;;;8.70;99.90;;;;;;5061486;28;20048;-76
2022/12/02 12:03:44;;;;;;;10.35;7.93;;;8.80;99.90;;;;;;5059520;28;20045;-76
2022/12/02 12:06:20;;;;;;;11.70;8.32;;;8.90;99.90;;;;;;5043802;28;20057;-75
2022/12/02 12:08:49;;;;;;;10.55;7.47;;;9.00;99.90;;;;;;5047847;28;20451;-75
2022/12/02 12:11:26;;;;;;;9.23;7.43;;;9.00;99.90;;;;;;5049304;28;20048;-80
2022/12/02 12:14:04;;;;;;;9.02;7.10;;;9.00;99.90;;;;;;5053712;28;20044;-83
2022/12/02 12:16:33;;;;;;;9.73;7.47;;;9.00;99.90;;;;;;5042096;28;20048;-84
2022/12/02 12:19:20;;;;;;;10.10;8.65;;;9.00;99.90;;;;;;5024480;28;20076;-83
2022/12/02 12:21:54;;;;;;;10.13;8.35;;;9.10;99.90;;;;;;5037794;28;20400;-84
2022/12/02 12:24:24;;;;;;;10.48;8.80;;;9.10;99.90;;;;;;5050287;28;20070;-84
2022/12/02 12:26:53;;;;;;;10.68;8.88;;;9.10;99.90;;;;;;5059798;28;20135;-84
2022/12/02 12:29:24;;;;;;;11.27;8.57;;;9.00;99.90;;;;;;5027109;28;20157;-84
2022/12/02 12:31:51;;;;;;;11.07;8.65;;;9.00;99.90;;;;;;5028418;28;20364;-84
2022/12/02 12:34:18;;;;;;;10.82;8.52;;;8.90;99.90;;;;;;5026414;28;20293;-83
2022/12/02 12:36:45;;;;;;;10.05;7.82;;;8.90;99.90;;;;;;5060786;28;20052;-84
2022/12/02 12:39:13;;;;;;;11.85;8.80;;;8.90;99.90;;;;;;5044342;28;20446;-84
2022/12/02 12:41:39;;;;;;;10.75;9.13;;;8.90;99.90;;;;;;5060681;28;20060;-85
2022/12/02 12:44:26;;;;;;;12.98;10.30;;;8.80;99.90;;;;;;5046009;28;20048;-84
2022/12/02 12:47:01;;;;;;;12.40;8.93;;;8.70;99.90;;;;;;5044432;28;20546;-85
2022/12/02 12:49:28;;;;;;;9.98;8.10;;;8.90;99.90;;;;;;5059840;28;20405;-85
2022/12/02 12:51:55;;;;;;;10.88;9.07;;;9.20;99.90;;;;;;5043760;28;20395;-84
2022/12/02 12:54:22;;;;;;;11.82;8.93;;;9.30;99.90;;;;;;5060040;28;20060;-84
2022/12/02 12:56:49;;;;;;;10.43;8.77;;;9.40;99.90;;;;;;5044002;28;20040;-83
2022/12/02 12:59:16;;;;;;;11.52;9.48;;;9.30;99.90;;;;;;5042287;28;20058;-84
2022/12/02 13:01:43;;;;;;;11.57;9.43;;;9.10;99.90;;;;;;5027027;28;20431;-84
2022/12/02 13:04:11;;;;;;;12.95;9.50;;;9.10;99.90;;;;;;5058749;28;20557;-83
2022/12/02 13:06:38;;;;;;;11.70;9.60;;;9.00;99.90;;;;;;5043339;28;20063;-84
2022/12/02 13:09:09;;;;;;;12.50;9.27;;;8.90;99.90;;;;;;5059875;28;20356;-83
2022/12/02 13:11:36;;;;;;;11.15;8.23;;;8.90;99.90;;;;;;5061498;28;20114;-83